Time;durP1;ratioP1;P1;durP2;ratioP2;P2;SDS_P1;SDS_P2;PMS_P1;PMS_P2;Temp;Humidity;BMP_temperature;BMP_pressure;BME280_temperature;BME280_humidity;BME280_pressure;Samples;Min_cycle;Max_cycle;Signal;HPM_P1;HPM_P2
2021/08/29 00:01:27;;;;;;;;;5.25;5.25;;;;;;;;5075111;28;8836;-79
2021/08/29 00:03:54;;;;;;;;;4.75;3.50;;;;;;;;5063139;28;8930;-81
2021/08/29 00:06:23;;;;;;;;;4.75;4.00;;;;;;;;5067598;28;8971;-80
2021/08/29 00:08:50;;;;;;;;;3.25;3.25;;;;;;;;5075026;28;9644;-81
2021/08/29 00:11:17;;;;;;;;;7.25;4.50;;;;;;;;5062248;28;8856;-82
2021/08/29 00:13:45;;;;;;;;;8.50;5.00;;;;;;;;5060673;28;8895;-82
2021/08/29 00:16:12;;;;;;;;;6.50;5.25;;;;;;;;5078464;28;8856;-84
2021/08/29 00:18:40;;;;;;;;;5.25;5.00;;;;;;;;5073569;28;8875;-82
2021/08/29 00:21:07;;;;;;;;;5.75;4.00;;;;;;;;5070438;28;8868;-81
2021/08/29 00:23:36;;;;;;;;;7.25;6.00;;;;;;;;5067455;28;8872;-81
2021/08/29 00:26:03;;;;;;;;;6.00;6.00;;;;;;;;5073822;28;8848;-82
2021/08/29 00:28:30;;;;;;;;;7.50;4.75;;;;;;;;5083817;28;9456;-81
2021/08/29 00:30:57;;;;;;;;;6.75;6.75;;;;;;;;5067769;28;8858;-81
2021/08/29 00:33:25;;;;;;;;;5.25;5.25;;;;;;;;5080840;28;8987;-82
2021/08/29 00:35:52;;;;;;;;;7.00;3.50;;;;;;;;5071265;28;8872;-82
2021/08/29 00:38:19;;;;;;;;;7.25;5.75;;;;;;;;5063163;28;9648;-79
2021/08/29 00:40:48;;;;;;;;;10.50;5.50;;;;;;;;5067475;28;8879;-83
2021/08/29 00:43:16;;;;;;;;;6.50;6.25;;;;;;;;5073044;28;8881;-82
2021/08/29 00:45:43;;;;;;;;;6.00;5.00;;;;;;;;5060495;28;8869;-78
2021/08/29 00:48:11;;;;;;;;;7.00;6.00;;;;;;;;5064553;28;8911;-78
2021/08/29 00:50:39;;;;;;;;;4.50;4.25;;;;;;;;5073989;28;8869;-80
2021/08/29 00:53:08;;;;;;;;;6.75;4.75;;;;;;;;5068684;28;8991;-80
2021/08/29 00:55:36;;;;;;;;;6.75;5.25;;;;;;;;5076193;28;8860;-81
2021/08/29 00:58:04;;;;;;;;;5.50;5.50;;;;;;;;5063989;28;8883;-78
2021/08/29 01:00:33;;;;;;;;;9.50;6.75;;;;;;;;5066885;28;8808;-82
2021/08/29 01:03:01;;;;;;;;;7.00;6.00;;;;;;;;5078944;28;9766;-81
2021/08/29 01:05:30;;;;;;;;;4.00;2.00;;;;;;;;5078629;28;8903;-80
2021/08/29 01:08:02;;;;;;;;;4.00;4.00;;;;;;;;5070218;28;8853;-80
2021/08/29 01:10:35;;;;;;;;;8.75;8.75;;;;;;;;5060099;28;8870;-79
2021/08/29 01:13:04;;;;;;;;;7.00;5.50;;;;;;;;5086487;28;8849;-79
2021/08/29 01:15:33;;;;;;;;;4.00;4.00;;;;;;;;5069665;28;8860;-81
2021/08/29 01:18:01;;;;;;;;;4.50;4.50;;;;;;;;5070041;28;9587;-81
2021/08/29 01:20:33;;;;;;;;;5.25;5.25;;;;;;;;5082256;28;8845;-83
2021/08/29 01:23:00;;;;;;;;;6.00;6.00;;;;;;;;5060184;28;8903;-80
2021/08/29 01:25:29;;;;;;;;;6.75;5.00;;;;;;;;5081690;28;8853;-79
2021/08/29 01:27:58;;;;;;;;;9.25;5.50;;;;;;;;5075903;28;8893;-80
2021/08/29 01:30:27;;;;;;;;;4.75;4.75;;;;;;;;5074165;28;9530;-82
2021/08/29 01:32:55;;;;;;;;;8.00;6.50;;;;;;;;5065576;28;8856;-80
2021/08/29 01:35:24;;;;;;;;;7.50;7.50;;;;;;;;5071050;28;8987;-82
2021/08/29 01:37:52;;;;;;;;;8.50;4.75;;;;;;;;5072683;28;8852;-78
2021/08/29 01:40:20;;;;;;;;;5.00;4.75;;;;;;;;5071854;28;8873;-79
2021/08/29 01:42:48;;;;;;;;;5.00;5.00;;;;;;;;5060270;28;8888;-76
2021/08/29 01:45:17;;;;;;;;;7.75;5.50;;;;;;;;5051052;28;8887;-80
2021/08/29 01:47:45;;;;;;;;;5.75;5.75;;;;;;;;5069942;28;8895;-78
2021/08/29 01:50:13;;;;;;;;;10.00;6.25;;;;;;;;5074586;28;8854;-78
2021/08/29 01:52:41;;;;;;;;;6.00;6.00;;;;;;;;5066631;28;8887;-78
2021/08/29 01:55:08;;;;;;;;;5.00;5.00;;;;;;;;5060850;28;8881;-81
2021/08/29 01:57:36;;;;;;;;;5.75;5.75;;;;;;;;5070810;28;8898;-82
2021/08/29 02:00:03;;;;;;;;;5.50;5.25;;;;;;;;5066308;28;9006;-82
2021/08/29 02:02:31;;;;;;;;;7.00;5.00;;;;;;;;5079395;28;8821;-81
2021/08/29 02:05:00;;;;;;;;;5.00;5.00;;;;;;;;5083771;28;8915;-78
2021/08/29 02:07:32;;;;;;;;;6.00;6.00;;;;;;;;5068166;28;8872;-82
2021/08/29 02:10:03;;;;;;;;;8.75;5.00;;;;;;;;5068588;28;8876;-81
2021/08/29 02:12:34;;;;;;;;;5.00;5.00;;;;;;;;5063697;28;8919;-80
2021/08/29 02:15:03;;;;;;;;;8.00;6.50;;;;;;;;5063019;28;8949;-80
2021/08/29 02:17:32;;;;;;;;;3.75;3.75;;;;;;;;5070536;28;8860;-80
2021/08/29 02:20:04;;;;;;;;;5.00;5.00;;;;;;;;5070076;28;8848;-78
2021/08/29 02:22:33;;;;;;;;;6.75;5.00;;;;;;;;5051842;28;8868;-81
2021/08/29 02:25:00;;;;;;;;;3.25;3.25;;;;;;;;5067057;28;8929;-79
2021/08/29 02:27:27;;;;;;;;;8.75;7.00;;;;;;;;5072412;28;8907;-77
2021/08/29 02:29:55;;;;;;;;;5.00;5.00;;;;;;;;5060121;28;8854;-81
2021/08/29 02:32:23;;;;;;;;;5.00;5.00;;;;;;;;5072071;28;8844;-81
2021/08/29 02:34:50;;;;;;;;;9.75;4.25;;;;;;;;5074081;28;9010;-81
2021/08/29 02:37:20;;;;;;;;;5.00;5.00;;;;;;;;5078547;28;8852;-80
2021/08/29 02:39:47;;;;;;;;;5.00;5.00;;;;;;;;5067743;28;8880;-80
2021/08/29 02:42:15;;;;;;;;;8.00;5.00;;;;;;;;5075126;28;8894;-82
2021/08/29 02:44:45;;;;;;;;;8.00;8.00;;;;;;;;5058827;28;9061;-82
2021/08/29 02:47:13;;;;;;;;;6.00;6.00;;;;;;;;5063657;28;8868;-82
2021/08/29 02:49:41;;;;;;;;;5.33;5.33;;;;;;;;5066057;28;8953;-79
2021/08/29 02:52:08;;;;;;;;;11.00;8.00;;;;;;;;5069077;28;9008;-83
2021/08/29 02:54:40;;;;;;;;;5.50;5.50;;;;;;;;5068222;28;9060;-82
2021/08/29 02:57:10;;;;;;;;;7.75;7.75;;;;;;;;5074342;28;8859;-80
2021/08/29 02:59:38;;;;;;;;;8.00;8.00;;;;;;;;5050231;28;8869;-83
2021/08/29 03:02:07;;;;;;;;;8.75;6.25;;;;;;;;5051745;28;8839;-83
2021/08/29 03:04:35;;;;;;;;;8.00;6.25;;;;;;;;5083893;28;8879;-82
2021/08/29 03:07:03;;;;;;;;;8.25;6.25;;;;;;;;5070764;28;8872;-81
2021/08/29 03:09:33;;;;;;;;;4.00;4.00;;;;;;;;5074159;28;8858;-78
2021/08/29 03:12:04;;;;;;;;;5.50;5.50;;;;;;;;5071980;28;8867;-81
2021/08/29 03:14:34;;;;;;;;;8.25;6.75;;;;;;;;5053106;28;8910;-79
2021/08/29 03:17:02;;;;;;;;;6.00;5.00;;;;;;;;5064347;28;9009;-79
2021/08/29 03:19:29;;;;;;;;;6.25;6.25;;;;;;;;5073681;28;8864;-80
2021/08/29 03:21:57;;;;;;;;;4.50;4.50;;;;;;;;5072881;28;8844;-77
2021/08/29 03:24:25;;;;;;;;;7.50;7.50;;;;;;;;5059798;28;8930;-81
2021/08/29 03:26:53;;;;;;;;;5.00;5.00;;;;;;;;5074142;28;9006;-80
2021/08/29 03:29:22;;;;;;;;;5.25;5.25;;;;;;;;5067601;28;8887;-80
2021/08/29 03:31:50;;;;;;;;;6.25;4.00;;;;;;;;5069285;28;8814;-80
2021/08/29 03:34:19;;;;;;;;;4.00;4.00;;;;;;;;5054815;28;8890;-78
2021/08/29 03:36:46;;;;;;;;;5.00;3.50;;;;;;;;5061939;28;8867;-78
2021/08/29 03:39:14;;;;;;;;;4.25;4.25;;;;;;;;5064658;28;8847;-80
2021/08/29 03:41:43;;;;;;;;;5.75;5.75;;;;;;;;5080966;28;8885;-81
2021/08/29 03:44:12;;;;;;;;;7.50;5.50;;;;;;;;5076726;28;8861;-81
2021/08/29 03:46:41;;;;;;;;;6.00;4.50;;;;;;;;5068244;28;8869;-81
2021/08/29 03:49:09;;;;;;;;;6.50;6.25;;;;;;;;5073631;28;9684;-81
2021/08/29 03:51:37;;;;;;;;;4.00;4.00;;;;;;;;5064758;28;8908;-80
2021/08/29 03:54:07;;;;;;;;;4.50;3.75;;;;;;;;5070682;28;8864;-81
2021/08/29 03:56:35;;;;;;;;;4.00;4.00;;;;;;;;5050428;28;8928;-80
2021/08/29 03:59:03;;;;;;;;;5.00;5.00;;;;;;;;5038635;28;8884;-80
2021/08/29 04:01:30;;;;;;;;;4.25;4.25;;;;;;;;5079282;28;8826;-79
2021/08/29 04:03:59;;;;;;;;;5.00;5.00;;;;;;;;5082658;28;8893;-79
2021/08/29 04:06:27;;;;;;;;;4.75;4.75;;;;;;;;5071956;28;8873;-82
2021/08/29 04:08:56;;;;;;;;;10.25;8.00;;;;;;;;5074423;28;8876;-80
2021/08/29 04:11:24;;;;;;;;;13.67;8.00;;;;;;;;5074466;28;8878;-81
2021/08/29 04:13:52;;;;;;;;;9.25;6.25;;;;;;;;5075667;28;9211;-81
2021/08/29 04:16:20;;;;;;;;;7.25;7.00;;;;;;;;5062148;28;8884;-81
2021/08/29 04:18:49;;;;;;;;;9.00;5.00;;;;;;;;5076898;28;8873;-79
2021/08/29 04:21:19;;;;;;;;;7.75;7.00;;;;;;;;5067900;28;8872;-80
2021/08/29 04:23:47;;;;;;;;;5.50;5.50;;;;;;;;5067025;28;8869;-80
2021/08/29 04:26:15;;;;;;;;;8.67;8.67;;;;;;;;5068322;28;9659;-81
2021/08/29 04:28:43;;;;;;;;;7.67;7.33;;;;;;;;5085640;28;9721;-78
2021/08/29 04:31:12;;;;;;;;;8.00;8.00;;;;;;;;5048730;28;8899;-81
2021/08/29 04:33:39;;;;;;;;;10.00;8.50;;;;;;;;5057627;28;8926;-82
2021/08/29 04:36:08;;;;;;;;;5.75;5.00;;;;;;;;5057975;28;8987;-79
2021/08/29 04:38:37;;;;;;;;;5.25;5.25;;;;;;;;5060885;28;9246;-80
2021/08/29 04:41:05;;;;;;;;;4.00;4.00;;;;;;;;5075032;28;8851;-81
2021/08/29 04:43:33;;;;;;;;;10.50;9.50;;;;;;;;5069523;28;8868;-81
2021/08/29 04:46:00;;;;;;;;;6.00;6.00;;;;;;;;5072243;28;9632;-81
2021/08/29 04:48:28;;;;;;;;;5.50;4.25;;;;;;;;5064650;28;8997;-82
2021/08/29 04:50:55;;;;;;;;;5.25;5.25;;;;;;;;5084391;28;8893;-80
2021/08/29 04:53:22;;;;;;;;;9.25;4.75;;;;;;;;5074879;28;8890;-81
2021/08/29 04:55:51;;;;;;;;;6.50;6.50;;;;;;;;5086023;28;8877;-81
2021/08/29 04:58:18;;;;;;;;;5.25;4.00;;;;;;;;5072771;28;9784;-84
2021/08/29 05:00:45;;;;;;;;;5.50;3.75;;;;;;;;5074558;28;9478;-86
2021/08/29 05:03:12;;;;;;;;;6.00;6.00;;;;;;;;5083065;28;8873;-83
2021/08/29 05:05:40;;;;;;;;;6.25;5.00;;;;;;;;5059675;28;8910;-85
2021/08/29 05:08:07;;;;;;;;;8.75;6.50;;;;;;;;5082496;28;8919;-86
2021/08/29 05:10:34;;;;;;;;;8.00;8.00;;;;;;;;5087211;28;8919;-87
2021/08/29 05:13:03;;;;;;;;;6.00;6.00;;;;;;;;5084435;28;9816;-85
2021/08/29 05:15:31;;;;;;;;;10.25;9.00;;;;;;;;5073312;28;8883;-85
2021/08/29 05:17:59;;;;;;;;;9.75;8.25;;;;;;;;5062170;28;8896;-85
2021/08/29 05:20:26;;;;;;;;;8.00;8.00;;;;;;;;5081628;28;8891;-81
2021/08/29 05:22:54;;;;;;;;;4.75;3.00;;;;;;;;5080986;28;8917;-82
2021/08/29 05:25:21;;;;;;;;;5.50;5.50;;;;;;;;5079651;28;8863;-83
2021/08/29 05:27:48;;;;;;;;;9.25;6.00;;;;;;;;5082662;28;9011;-84
2021/08/29 05:30:17;;;;;;;;;8.00;5.50;;;;;;;;5064121;28;8899;-80
2021/08/29 05:32:44;;;;;;;;;7.75;5.75;;;;;;;;5075056;28;8993;-83
2021/08/29 05:35:12;;;;;;;;;9.75;6.50;;;;;;;;5071155;28;8875;-86
2021/08/29 05:37:40;;;;;;;;;5.50;5.50;;;;;;;;5041329;28;8864;-85
2021/08/29 05:40:08;;;;;;;;;5.75;4.75;;;;;;;;5063318;28;8921;-81
2021/08/29 05:42:35;;;;;;;;;5.75;5.75;;;;;;;;5075796;28;8876;-87
2021/08/29 05:45:02;;;;;;;;;9.00;6.00;;;;;;;;5083227;28;8877;-86
2021/08/29 05:47:31;;;;;;;;;6.00;6.00;;;;;;;;5060947;28;8888;-83
2021/08/29 05:49:59;;;;;;;;;5.25;5.25;;;;;;;;5068627;28;8982;-83
2021/08/29 05:52:26;;;;;;;;;6.00;6.00;;;;;;;;5064064;28;8875;-80
2021/08/29 05:54:53;;;;;;;;;4.50;4.50;;;;;;;;5065233;28;8937;-85
2021/08/29 05:57:20;;;;;;;;;10.50;6.00;;;;;;;;5082862;28;9521;-86
2021/08/29 05:59:48;;;;;;;;;7.50;5.00;;;;;;;;5076534;28;8987;-80
2021/08/29 06:02:15;;;;;;;;;7.75;7.00;;;;;;;;5082494;28;9556;-79
2021/08/29 06:04:44;;;;;;;;;4.00;4.00;;;;;;;;5080645;28;8872;-85
2021/08/29 06:07:11;;;;;;;;;7.50;7.00;;;;;;;;5071104;28;8873;-82
2021/08/29 06:09:38;;;;;;;;;5.25;5.25;;;;;;;;5079863;28;8873;-83
2021/08/29 06:12:06;;;;;;;;;5.25;5.25;;;;;;;;5086458;28;8873;-86
2021/08/29 06:14:33;;;;;;;;;4.50;4.50;;;;;;;;5074607;28;8884;-85
2021/08/29 06:17:01;;;;;;;;;5.00;5.00;;;;;;;;5085309;28;8896;-83
2021/08/29 06:19:28;;;;;;;;;8.00;6.00;;;;;;;;5085695;28;8942;-83
2021/08/29 06:21:57;;;;;;;;;5.00;5.00;;;;;;;;5049085;28;8895;-84
2021/08/29 06:24:24;;;;;;;;;6.75;4.75;;;;;;;;5076784;28;8872;-84
2021/08/29 06:26:52;;;;;;;;;10.00;8.50;;;;;;;;5078504;28;8889;-84
2021/08/29 06:29:19;;;;;;;;;6.50;5.00;;;;;;;;5076285;28;8856;-83
2021/08/29 06:31:47;;;;;;;;;6.25;6.25;;;;;;;;5081419;28;8825;-84
2021/08/29 06:34:14;;;;;;;;;6.00;6.00;;;;;;;;5070641;28;8874;-86
2021/08/29 06:36:44;;;;;;;;;4.50;4.50;;;;;;;;5058273;28;8872;-84
2021/08/29 06:39:12;;;;;;;;;5.00;4.00;;;;;;;;5069584;28;8876;-84
2021/08/29 06:41:40;;;;;;;;;5.75;5.75;;;;;;;;5064864;28;8872;-85
2021/08/29 06:44:07;;;;;;;;;4.75;4.75;;;;;;;;5063907;28;8880;-84
2021/08/29 06:46:34;;;;;;;;;6.75;4.00;;;;;;;;5084020;28;8850;-86
2021/08/29 06:49:02;;;;;;;;;4.50;4.50;;;;;;;;5078154;28;8917;-85
2021/08/29 06:51:29;;;;;;;;;5.00;5.00;;;;;;;;5063405;28;9003;-81
2021/08/29 06:53:56;;;;;;;;;4.00;4.00;;;;;;;;5061087;28;8910;-82
2021/08/29 06:56:25;;;;;;;;;6.50;5.00;;;;;;;;5059669;28;8891;-82
2021/08/29 06:58:52;;;;;;;;;6.00;5.50;;;;;;;;5058529;28;9602;-78
2021/08/29 07:01:20;;;;;;;;;6.00;4.00;;;;;;;;5059224;28;8812;-81
2021/08/29 07:03:47;;;;;;;;;3.75;3.75;;;;;;;;5059422;28;8939;-79
2021/08/29 07:06:15;;;;;;;;;4.50;3.00;;;;;;;;5043227;28;8888;-81
2021/08/29 07:08:42;;;;;;;;;3.75;3.75;;;;;;;;5060704;28;8848;-82
2021/08/29 07:11:09;;;;;;;;;4.50;4.50;;;;;;;;5059679;28;8876;-83
2021/08/29 07:13:38;;;;;;;;;4.50;3.50;;;;;;;;5059263;28;8864;-84
2021/08/29 07:16:06;;;;;;;;;3.00;3.00;;;;;;;;5042809;28;9006;-81
2021/08/29 07:18:33;;;;;;;;;5.00;5.00;;;;;;;;5042897;28;8876;-78
2021/08/29 07:21:01;;;;;;;;;4.25;4.25;;;;;;;;5063042;28;8864;-79
2021/08/29 07:23:29;;;;;;;;;3.75;3.75;;;;;;;;5056787;28;8987;-84
2021/08/29 07:25:57;;;;;;;;;3.50;3.50;;;;;;;;5061930;28;9693;-79
2021/08/29 07:28:24;;;;;;;;;3.00;3.00;;;;;;;;5058446;28;8880;-79
2021/08/29 07:30:53;;;;;;;;;3.00;3.00;;;;;;;;5060262;28;8955;-81
2021/08/29 07:33:20;;;;;;;;;3.75;3.75;;;;;;;;5061097;28;8994;-84
2021/08/29 07:35:48;;;;;;;;;3.00;3.00;;;;;;;;5062276;28;8884;-82
2021/08/29 07:38:15;;;;;;;;;3.00;3.00;;;;;;;;5061956;28;8869;-89
2021/08/29 07:40:43;;;;;;;;;5.50;5.00;;;;;;;;5074384;28;8877;-81
2021/08/29 07:43:10;;;;;;;;;4.00;4.00;;;;;;;;5063369;28;8894;-80
2021/08/29 07:45:38;;;;;;;;;5.00;3.25;;;;;;;;5055963;28;8897;-82
2021/08/29 07:48:07;;;;;;;;;4.50;4.50;;;;;;;;5053605;28;8903;-79
2021/08/29 07:50:34;;;;;;;;;4.00;4.00;;;;;;;;5066805;28;8874;-85
2021/08/29 07:53:02;;;;;;;;;4.50;4.50;;;;;;;;5083172;28;8875;-82
2021/08/29 07:55:29;;;;;;;;;4.00;4.00;;;;;;;;5054426;28;8876;-82
2021/08/29 07:57:56;;;;;;;;;6.00;6.00;;;;;;;;5058241;28;8885;-82
2021/08/29 08:00:24;;;;;;;;;3.50;3.50;;;;;;;;5069526;28;8838;-78
2021/08/29 08:02:51;;;;;;;;;5.25;5.25;;;;;;;;5066582;28;9024;-79
2021/08/29 08:05:20;;;;;;;;;7.00;6.00;;;;;;;;5065144;28;9665;-81
2021/08/29 08:07:48;;;;;;;;;6.50;6.50;;;;;;;;5070846;28;9677;-79
2021/08/29 08:10:15;;;;;;;;;5.75;5.75;;;;;;;;5082848;28;8917;-81
2021/08/29 08:12:42;;;;;;;;;7.25;6.50;;;;;;;;5087470;28;8915;-82
2021/08/29 08:15:11;;;;;;;;;4.00;4.00;;;;;;;;5086911;28;8895;-82
2021/08/29 08:17:39;;;;;;;;;5.25;5.25;;;;;;;;5080503;28;8873;-79
2021/08/29 08:20:08;;;;;;;;;8.00;5.75;;;;;;;;5073178;28;8878;-76
2021/08/29 08:22:37;;;;;;;;;7.75;7.75;;;;;;;;5067621;28;9328;-78
2021/08/29 08:25:05;;;;;;;;;5.25;5.25;;;;;;;;5077146;28;8877;-79
2021/08/29 08:27:32;;;;;;;;;5.75;5.75;;;;;;;;5087199;28;8954;-78
2021/08/29 08:29:59;;;;;;;;;7.50;7.50;;;;;;;;5067583;28;8998;-78
2021/08/29 08:32:27;;;;;;;;;8.50;7.00;;;;;;;;5066341;28;8804;-72
2021/08/29 08:34:54;;;;;;;;;5.00;5.00;;;;;;;;5063344;28;8862;-73
2021/08/29 08:37:21;;;;;;;;;8.50;8.50;;;;;;;;5063245;28;8870;-74
2021/08/29 08:39:50;;;;;;;;;7.50;7.25;;;;;;;;5075507;28;8919;-73
2021/08/29 08:42:17;;;;;;;;;8.50;6.75;;;;;;;;5076677;28;9685;-73
2021/08/29 08:44:47;;;;;;;;;10.00;8.00;;;;;;;;5076455;28;8897;-72
2021/08/29 08:47:18;;;;;;;;;6.00;5.50;;;;;;;;5067172;28;8836;-73
2021/08/29 08:49:46;;;;;;;;;7.00;6.75;;;;;;;;5068724;28;8930;-73
2021/08/29 08:52:17;;;;;;;;;9.00;7.00;;;;;;;;5063341;28;9586;-73
2021/08/29 08:54:47;;;;;;;;;7.25;6.75;;;;;;;;5046058;28;9512;-74
2021/08/29 08:57:18;;;;;;;;;6.60;6.60;;;;;;;;5065234;28;8918;-73
2021/08/29 08:59:46;;;;;;;;;6.75;6.75;;;;;;;;5062160;28;9654;-74
2021/08/29 09:02:16;;;;;;;;;5.00;5.00;;;;;;;;5066284;28;8820;-74
2021/08/29 09:04:44;;;;;;;;;5.80;5.80;;;;;;;;5063925;28;8877;-74
2021/08/29 09:07:11;;;;;;;;;6.60;6.60;;;;;;;;5061801;28;8872;-74
2021/08/29 09:09:38;;;;;;;;;7.20;7.20;;;;;;;;5064627;28;8848;-74
2021/08/29 09:12:06;;;;;;;;;9.00;9.00;;;;;;;;5064550;28;8892;-74
2021/08/29 09:14:42;;;;;;;;;6.50;6.50;;;;;;;;5063254;28;8881;-74
2021/08/29 09:17:23;;;;;;;;;9.40;8.00;;;;;;;;5063717;28;9719;-74
2021/08/29 09:19:51;;;;;;;;;6.60;6.60;;;;;;;;5064285;28;8886;-74
2021/08/29 09:22:26;;;;;;;;;8.00;6.60;;;;;;;;5065232;28;8844;-74
2021/08/29 09:24:54;;;;;;;;;8.40;7.00;;;;;;;;5044012;28;8968;-74
2021/08/29 09:27:23;;;;;;;;;6.00;6.00;;;;;;;;5064974;28;8893;-74
2021/08/29 09:29:52;;;;;;;;;5.20;5.20;;;;;;;;5060965;28;8860;-74
2021/08/29 09:32:21;;;;;;;;;8.80;8.80;;;;;;;;5065857;28;8967;-74
2021/08/29 09:34:58;;;;;;;;;6.80;6.80;;;;;;;;5069426;28;8868;-71
2021/08/29 09:37:26;;;;;;;;;9.00;7.00;;;;;;;;5063792;28;9042;-74
2021/08/29 09:40:13;;;;;;;;;6.80;6.80;;;;;;;;5062851;28;8836;-74
2021/08/29 09:42:42;;;;;;;;;6.60;6.60;;;;;;;;5064213;28;8883;-76
2021/08/29 09:45:13;;;;;;;;;6.00;6.00;;;;;;;;5064321;28;9482;-73
2021/08/29 09:47:40;;;;;;;;;5.20;5.20;;;;;;;;5065199;28;8946;-74
2021/08/29 09:50:08;;;;;;;;;6.40;6.40;;;;;;;;5070920;28;8878;-74
2021/08/29 09:52:36;;;;;;;;;7.00;7.00;;;;;;;;5083591;28;8865;-73
2021/08/29 09:55:04;;;;;;;;;6.00;6.00;;;;;;;;5084844;28;8865;-75
2021/08/29 09:57:33;;;;;;;;;6.40;6.40;;;;;;;;5070958;28;8874;-75
2021/08/29 10:00:00;;;;;;;;;6.40;6.40;;;;;;;;5065966;28;9750;-74
2021/08/29 10:02:30;;;;;;;;;5.40;5.40;;;;;;;;5065999;28;8796;-75
2021/08/29 10:05:12;;;;;;;;;5.00;5.00;;;;;;;;5073016;28;8869;-73
2021/08/29 10:07:39;;;;;;;;;6.20;6.20;;;;;;;;5068273;28;8911;-74
2021/08/29 10:10:22;;;;;;;;;5.40;5.40;;;;;;;;5075557;28;8873;-74
2021/08/29 10:12:51;;;;;;;;;6.40;6.20;;;;;;;;5078003;28;8867;-75
2021/08/29 10:15:19;;;;;;;;;6.00;6.00;;;;;;;;5076789;28;8863;-74
2021/08/29 10:17:50;;;;;;;;;6.80;6.20;;;;;;;;5066469;28;8887;-75
2021/08/29 10:20:21;;;;;;;;;5.80;5.80;;;;;;;;5069370;28;9649;-74
2021/08/29 10:22:49;;;;;;;;;7.40;7.20;;;;;;;;5078391;28;8869;-74
2021/08/29 10:25:18;;;;;;;;;5.60;5.60;;;;;;;;5069659;28;8883;-74
2021/08/29 10:27:47;;;;;;;;;6.60;5.80;;;;;;;;5079491;28;9746;-74
2021/08/29 10:30:14;;;;;;;;;7.60;7.60;;;;;;;;5067799;28;8856;-74
2021/08/29 10:32:45;;;;;;;;;8.20;8.20;;;;;;;;5066575;28;8887;-74
2021/08/29 10:35:15;;;;;;;;;14.00;13.00;;;;;;;;5078091;28;8880;-74
2021/08/29 10:37:44;;;;;;;;;16.20;11.60;;;;;;;;5070168;28;8995;-74
2021/08/29 10:40:13;;;;;;;;;9.80;8.40;;;;;;;;5083705;28;8889;-73
2021/08/29 10:42:43;;;;;;;;;9.00;8.20;;;;;;;;5084774;28;9025;-75
2021/08/29 10:45:11;;;;;;;;;7.40;7.40;;;;;;;;5080333;28;8871;-75
2021/08/29 10:47:40;;;;;;;;;8.80;6.80;;;;;;;;5057297;28;8865;-73
2021/08/29 10:50:09;;;;;;;;;8.40;8.40;;;;;;;;5079866;28;8876;-73
2021/08/29 10:52:39;;;;;;;;;6.40;5.80;;;;;;;;5073474;28;8880;-75
2021/08/29 10:55:08;;;;;;;;;6.80;6.80;;;;;;;;5061008;28;8902;-74
2021/08/29 10:57:37;;;;;;;;;10.00;8.00;;;;;;;;5039395;28;8888;-74
2021/08/29 11:00:09;;;;;;;;;9.60;8.00;;;;;;;;5058126;28;8894;-75
2021/08/29 11:02:40;;;;;;;;;8.20;7.00;;;;;;;;5062502;28;8860;-73
2021/08/29 11:05:10;;;;;;;;;5.20;5.20;;;;;;;;5060472;28;8855;-76
2021/08/29 11:07:50;;;;;;;;;8.20;7.80;;;;;;;;5062122;28;8889;-74
2021/08/29 11:10:57;;;;;;;;;7.00;7.00;;;;;;;;5063914;28;8872;-76
2021/08/29 11:13:38;;;;;;;;;9.60;8.40;;;;;;;;5061607;28;8998;-75
2021/08/29 11:16:22;;;;;;;;;10.60;9.60;;;;;;;;5063365;28;8871;-79
2021/08/29 11:19:09;;;;;;;;;10.80;9.40;;;;;;;;5061930;28;9649;-75
2021/08/29 11:22:11;;;;;;;;;5.80;5.80;;;;;;;;5063729;28;8978;-75
2021/08/29 11:25:07;;;;;;;;;9.80;9.00;;;;;;;;5062725;28;8974;-76
2021/08/29 11:27:55;;;;;;;;;6.00;4.40;;;;;;;;5041384;28;8887;-77
2021/08/29 11:30:24;;;;;;;;;7.80;7.80;;;;;;;;5067065;28;8892;-78
2021/08/29 11:33:03;;;;;;;;;7.20;7.20;;;;;;;;5065557;28;8864;-77
2021/08/29 11:35:32;;;;;;;;;6.00;6.00;;;;;;;;5074529;28;8910;-77
2021/08/29 11:38:11;;;;;;;;;8.00;8.00;;;;;;;;5067979;28;8888;-77
2021/08/29 11:40:56;;;;;;;;;6.00;6.00;;;;;;;;5062810;28;8886;-77
2021/08/29 11:43:32;;;;;;;;;7.60;7.00;;;;;;;;5063790;28;8869;-77
2021/08/29 11:46:02;;;;;;;;;7.20;7.20;;;;;;;;5068631;28;8875;-78
2021/08/29 11:48:31;;;;;;;;;9.00;9.00;;;;;;;;5074749;28;8869;-77
2021/08/29 11:50:59;;;;;;;;;9.40;7.60;;;;;;;;5065822;28;8859;-76
2021/08/29 11:53:27;;;;;;;;;7.80;7.80;;;;;;;;5069438;28;8865;-78
2021/08/29 11:56:07;;;;;;;;;7.20;7.20;;;;;;;;5081595;28;8869;-77
2021/08/29 11:58:35;;;;;;;;;7.60;7.60;;;;;;;;5061089;28;8881;-77
2021/08/29 12:01:04;;;;;;;;;8.60;8.20;;;;;;;;5062867;28;8804;-76
2021/08/29 12:03:36;;;;;;;;;7.00;6.40;;;;;;;;5057189;28;8887;-76
2021/08/29 12:06:08;;;;;;;;;8.20;8.20;;;;;;;;5061794;28;8889;-77
2021/08/29 12:08:50;;;;;;;;;7.20;7.20;;;;;;;;5078177;28;8849;-77
2021/08/29 12:11:20;;;;;;;;;6.00;6.00;;;;;;;;5064834;28;8896;-76
2021/08/29 12:13:48;;;;;;;;;6.40;6.40;;;;;;;;5067147;28;8864;-76
2021/08/29 12:16:15;;;;;;;;;6.20;6.20;;;;;;;;5062862;28;8856;-76
2021/08/29 12:18:43;;;;;;;;;7.80;7.80;;;;;;;;5062394;28;8886;-76
2021/08/29 12:21:11;;;;;;;;;7.00;7.00;;;;;;;;5075365;28;8873;-77
2021/08/29 12:23:40;;;;;;;;;7.60;7.60;;;;;;;;5070909;28;8966;-77
2021/08/29 12:26:09;;;;;;;;;7.00;7.00;;;;;;;;5078796;28;8851;-77
2021/08/29 12:28:39;;;;;;;;;10.40;9.00;;;;;;;;5081231;28;8869;-76
2021/08/29 12:31:06;;;;;;;;;7.40;7.40;;;;;;;;5062733;28;8826;-78
2021/08/29 12:33:34;;;;;;;;;9.20;9.20;;;;;;;;5067267;28;8845;-78
2021/08/29 12:36:12;;;;;;;;;10.20;8.80;;;;;;;;5065654;28;8867;-77
2021/08/29 12:38:39;;;;;;;;;8.20;7.00;;;;;;;;5056273;28;9093;-78
2021/08/29 12:41:07;;;;;;;;;10.00;10.00;;;;;;;;5077948;28;8885;-77
2021/08/29 12:43:34;;;;;;;;;14.00;14.00;;;;;;;;5075307;28;8984;-79
2021/08/29 12:46:05;;;;;;;;;13.40;13.40;;;;;;;;5082371;28;9020;-76
2021/08/29 12:48:32;;;;;;;;;8.60;8.60;;;;;;;;5068701;28;9819;-78
2021/08/29 12:51:02;;;;;;;;;10.60;8.00;;;;;;;;5056814;28;8876;-76
2021/08/29 12:53:31;;;;;;;;;7.00;7.00;;;;;;;;5068583;28;9033;-76
2021/08/29 12:55:58;;;;;;;;;5.00;5.00;;;;;;;;5076324;28;8857;-76
2021/08/29 12:58:27;;;;;;;;;8.60;7.00;;;;;;;;5080420;28;8996;-76
2021/08/29 13:00:57;;;;;;;;;7.20;7.20;;;;;;;;5066123;28;8803;-76
2021/08/29 13:03:26;;;;;;;;;9.00;9.00;;;;;;;;5065943;28;8890;-76
2021/08/29 13:05:55;;;;;;;;;8.00;8.00;;;;;;;;5077609;28;8881;-76
2021/08/29 13:08:38;;;;;;;;;5.80;4.00;;;;;;;;5086579;28;8899;-76
2021/08/29 13:11:06;;;;;;;;;8.60;6.00;;;;;;;;5078536;28;9614;-76
2021/08/29 13:13:36;;;;;;;;;6.80;6.80;;;;;;;;5085747;28;8861;-76
2021/08/29 13:16:04;;;;;;;;;6.60;6.60;;;;;;;;5065069;28;8860;-76
2021/08/29 13:18:33;;;;;;;;;7.00;7.00;;;;;;;;5066536;28;8888;-76
2021/08/29 13:21:00;;;;;;;;;5.00;5.00;;;;;;;;5065193;28;8884;-76
2021/08/29 13:23:29;;;;;;;;;7.20;5.80;;;;;;;;5065915;28;8868;-76
2021/08/29 13:25:58;;;;;;;;;6.80;5.00;;;;;;;;5065862;28;8868;-75
2021/08/29 13:28:26;;;;;;;;;8.80;5.00;;;;;;;;5065463;28;8891;-76
2021/08/29 13:31:04;;;;;;;;;4.40;4.40;;;;;;;;5076867;28;8821;-76
2021/08/29 13:33:35;;;;;;;;;4.80;4.80;;;;;;;;5065532;28;8883;-76
2021/08/29 13:36:04;;;;;;;;;8.60;5.00;;;;;;;;5066135;28;8872;-76
2021/08/29 13:38:33;;;;;;;;;4.00;4.00;;;;;;;;5058326;28;8880;-75
2021/08/29 13:41:02;;;;;;;;;6.20;6.00;;;;;;;;5085878;28;8861;-76
2021/08/29 13:43:33;;;;;;;;;4.20;4.20;;;;;;;;5086164;28;8857;-75
2021/08/29 13:46:02;;;;;;;;;7.20;5.80;;;;;;;;5077385;28;8884;-76
2021/08/29 13:48:29;;;;;;;;;4.00;4.00;;;;;;;;5085937;28;8974;-75
2021/08/29 13:50:59;;;;;;;;;3.80;3.80;;;;;;;;5073054;28;8872;-75
2021/08/29 13:53:31;;;;;;;;;3.00;2.40;;;;;;;;5065321;28;8875;-76
2021/08/29 13:55:59;;;;;;;;;4.40;3.00;;;;;;;;5064762;28;8886;-76
2021/08/29 13:58:27;;;;;;;;;2.00;2.00;;;;;;;;5047679;28;8915;-75
2021/08/29 14:00:57;;;;;;;;;4.00;2.00;;;;;;;;5083908;28;8961;-75
2021/08/29 14:03:24;;;;;;;;;4.20;4.20;;;;;;;;5079813;28;8907;-75
2021/08/29 14:05:52;;;;;;;;;3.00;3.00;;;;;;;;5085391;28;8919;-75
2021/08/29 14:08:20;;;;;;;;;2.60;2.60;;;;;;;;5084147;28;8904;-76
2021/08/29 14:10:48;;;;;;;;;3.40;2.00;;;;;;;;5085595;28;8934;-75
2021/08/29 14:13:15;;;;;;;;;2.80;2.80;;;;;;;;5084621;28;8983;-75
2021/08/29 14:15:43;;;;;;;;;3.00;3.00;;;;;;;;5066049;28;8864;-75
2021/08/29 14:18:10;;;;;;;;;2.20;2.20;;;;;;;;5065266;28;8868;-76
2021/08/29 14:20:37;;;;;;;;;3.00;3.00;;;;;;;;5054508;28;9647;-75
2021/08/29 14:23:05;;;;;;;;;5.00;3.60;;;;;;;;5084637;28;9675;-76
2021/08/29 14:25:34;;;;;;;;;3.00;3.00;;;;;;;;5083770;28;8873;-76
2021/08/29 14:28:01;;;;;;;;;2.20;2.20;;;;;;;;5085310;28;8943;-76
2021/08/29 14:30:30;;;;;;;;;3.40;3.00;;;;;;;;5067503;28;9590;-76
2021/08/29 14:32:59;;;;;;;;;3.00;3.00;;;;;;;;5065413;28;8888;-76
2021/08/29 14:35:27;;;;;;;;;2.20;2.20;;;;;;;;5064614;28;8887;-76
2021/08/29 14:37:55;;;;;;;;;2.20;2.20;;;;;;;;5053656;28;8888;-76
2021/08/29 14:40:24;;;;;;;;;1.60;1.60;;;;;;;;5064664;28;8883;-76
2021/08/29 14:42:52;;;;;;;;;1.80;1.80;;;;;;;;5063674;28;8972;-76
2021/08/29 14:45:21;;;;;;;;;2.00;2.00;;;;;;;;5064568;28;8891;-76
2021/08/29 14:47:49;;;;;;;;;2.60;2.60;;;;;;;;5060959;28;8907;-76
2021/08/29 14:50:17;;;;;;;;;1.80;1.80;;;;;;;;5062833;28;8913;-76
2021/08/29 14:52:45;;;;;;;;;1.40;1.40;;;;;;;;5064059;28;9602;-76
2021/08/29 14:55:13;;;;;;;;;3.00;1.80;;;;;;;;5076313;28;8878;-76
2021/08/29 14:57:40;;;;;;;;;4.20;2.40;;;;;;;;5084229;28;9005;-75
2021/08/29 15:00:10;;;;;;;;;1.00;1.00;;;;;;;;5069175;28;8871;-75
2021/08/29 15:02:39;;;;;;;;;2.00;1.80;;;;;;;;5064683;28;8913;-75
2021/08/29 15:05:08;;;;;;;;;1.80;1.80;;;;;;;;5063315;28;8996;-75
2021/08/29 15:07:36;;;;;;;;;2.80;2.80;;;;;;;;5065922;28;8898;-75